Time;durP1;ratioP1;P1;durP2;ratioP2;P2;SDS_P1;SDS_P2;PMS_P1;PMS_P2;Temp;Humidity;BMP_temperature;BMP_pressure;BME280_temperature;BME280_humidity;BME280_pressure;Samples;Min_cycle;Max_cycle;Signal;HPM_P1;HPM_P2
2022/08/22 00:01:42;;;;;;;7.57;3.17;;;;;;;;;;5017351;28;20249;-65
2022/08/22 00:04:40;;;;;;;10.02;3.22;;;;;;;;;;5028450;28;20277;-65
2022/08/22 00:07:18;;;;;;;11.90;3.72;;;;;;;;;;5020619;28;20632;-65
2022/08/22 00:09:53;;;;;;;10.75;4.15;;;;;;;;;;5026476;28;20213;-65
2022/08/22 00:12:31;;;;;;;9.50;3.90;;;;;;;;;;5027816;28;20719;-65
2022/08/22 00:15:08;;;;;;;10.95;3.60;;;;;;;;;;5029053;28;20204;-65
2022/08/22 00:17:46;;;;;;;11.30;4.13;;;;;;;;;;5028752;28;20193;-65
2022/08/22 00:20:27;;;;;;;8.15;4.10;;;;;;;;;;5027313;28;20186;-65
2022/08/22 00:22:55;;;;;;;9.65;4.07;;;;;;;;;;5028435;28;20548;-65
2022/08/22 00:25:40;;;;;;;13.48;4.30;;;;;;;;;;5028714;28;20309;-65
2022/08/22 00:28:14;;;;;;;8.63;4.18;;;;;;;;;;5028784;28;20251;-65
2022/08/22 00:31:14;;;;;;;13.55;5.15;;;;;;;;;;5027385;28;20570;-65
2022/08/22 00:34:07;;;;;;;10.77;4.68;;;;;;;;;;5021033;28;20193;-65
2022/08/22 00:36:42;;;;;;;10.35;4.32;;;;;;;;;;5029107;28;20182;-65
2022/08/22 00:39:34;;;;;;;13.30;5.35;;;;;;;;;;5027442;28;20212;-65
2022/08/22 00:42:33;;;;;;;10.63;5.13;;;;;;;;;;5020637;28;20189;-65
2022/08/22 00:45:24;;;;;;;12.25;4.50;;;;;;;;;;5021903;28;20204;-65
2022/08/22 00:48:19;;;;;;;9.48;4.72;;;;;;;;;;5019024;28;20827;-65
2022/08/22 00:50:58;;;;;;;10.40;5.28;;;;;;;;;;5025800;28;20320;-65
2022/08/22 00:53:39;;;;;;;7.00;4.45;;;;;;;;;;5028878;28;20263;-65
2022/08/22 00:56:28;;;;;;;12.30;5.05;;;;;;;;;;5015218;28;20296;-65
2022/08/22 00:59:11;;;;;;;10.18;5.22;;;;;;;;;;5028766;28;20491;-65
2022/08/22 01:02:00;;;;;;;12.88;5.43;;;;;;;;;;5016857;28;20216;-65
2022/08/22 01:04:44;;;;;;;11.70;5.32;;;;;;;;;;5027562;28;20185;-65
2022/08/22 01:07:25;;;;;;;11.38;5.35;;;;;;;;;;5028428;28;20185;-65
2022/08/22 01:10:22;;;;;;;9.52;4.93;;;;;;;;;;5026215;28;20246;-66
2022/08/22 01:13:14;;;;;;;12.77;5.72;;;;;;;;;;5019929;28;20596;-65
2022/08/22 01:15:41;;;;;;;10.27;5.00;;;;;;;;;;5024221;28;20189;-65
2022/08/22 01:18:47;;;;;;;13.88;5.38;;;;;;;;;;5028004;28;20246;-65
2022/08/22 01:21:50;;;;;;;16.15;5.85;;;;;;;;;;5019458;28;20186;-65
2022/08/22 01:24:30;;;;;;;12.52;6.20;;;;;;;;;;5011762;28;20701;-65
2022/08/22 01:27:42;;;;;;;11.30;5.82;;;;;;;;;;5026497;28;20205;-65
2022/08/22 01:30:25;;;;;;;11.55;5.30;;;;;;;;;;5023883;28;20195;-65
2022/08/22 01:33:02;;;;;;;11.80;5.72;;;;;;;;;;5042837;28;20296;-65
2022/08/22 01:35:58;;;;;;;12.20;5.88;;;;;;;;;;5021592;28;20626;-65
2022/08/22 01:38:42;;;;;;;12.43;6.30;;;;;;;;;;5032021;28;20209;-65
2022/08/22 01:41:15;;;;;;;13.48;6.40;;;;;;;;;;5030945;28;20189;-65
2022/08/22 01:43:52;;;;;;;9.27;5.75;;;;;;;;;;5026900;28;20193;-65
2022/08/22 01:46:33;;;;;;;15.20;6.57;;;;;;;;;;5030016;28;20190;-65
2022/08/22 01:49:10;;;;;;;11.82;5.65;;;;;;;;;;5032050;28;20241;-65
2022/08/22 01:51:38;;;;;;;12.60;6.55;;;;;;;;;;5031928;28;20186;-65
2022/08/22 01:54:10;;;;;;;12.38;6.05;;;;;;;;;;5031692;28;20182;-65
2022/08/22 01:56:44;;;;;;;13.23;6.55;;;;;;;;;;5031157;28;20257;-65
2022/08/22 01:59:23;;;;;;;10.73;6.22;;;;;;;;;;5031652;28;20182;-65
2022/08/22 02:01:48;;;;;;;10.20;6.55;;;;;;;;;;5032208;28;20186;-65
2022/08/22 02:04:36;;;;;;;10.95;6.22;;;;;;;;;;5031020;28;20662;-65
2022/08/22 02:07:13;;;;;;;10.07;5.78;;;;;;;;;;5031783;28;20214;-65
2022/08/22 02:10:09;;;;;;;13.48;6.07;;;;;;;;;;5012812;28;20198;-65
2022/08/22 02:12:40;;;;;;;11.50;6.43;;;;;;;;;;5025303;28;20191;-65
2022/08/22 02:15:37;;;;;;;12.57;6.18;;;;;;;;;;5026150;28;20198;-65
2022/08/22 02:18:05;;;;;;;12.52;6.20;;;;;;;;;;5031229;28;20182;-65
2022/08/22 02:20:55;;;;;;;10.80;7.20;;;;;;;;;;5027609;28;20182;-65
2022/08/22 02:23:29;;;;;;;13.73;6.78;;;;;;;;;;5030958;28;20272;-65
2022/08/22 02:26:00;;;;;;;12.45;6.80;;;;;;;;;;5027435;28;20256;-65
2022/08/22 02:28:56;;;;;;;15.32;7.05;;;;;;;;;;5030598;28;20576;-65
2022/08/22 02:31:40;;;;;;;11.50;6.60;;;;;;;;;;5033064;28;20540;-65
2022/08/22 02:34:32;;;;;;;15.38;6.65;;;;;;;;;;5031299;28;20186;-65
2022/08/22 02:37:09;;;;;;;15.45;6.88;;;;;;;;;;5030638;28;20189;-65
2022/08/22 02:39:48;;;;;;;11.63;7.00;;;;;;;;;;5026244;28;20181;-65
2022/08/22 02:42:47;;;;;;;11.95;6.30;;;;;;;;;;5029564;28;20186;-65
2022/08/22 02:45:20;;;;;;;12.38;7.10;;;;;;;;;;5010525;28;20221;-65
2022/08/22 02:48:16;;;;;;;12.88;6.22;;;;;;;;;;5031159;28;20190;-65
2022/08/22 02:50:41;;;;;;;13.80;6.65;;;;;;;;;;5016986;28;20190;-65
2022/08/22 02:53:24;;;;;;;15.85;7.25;;;;;;;;;;5030855;28;20231;-65
2022/08/22 02:56:11;;;;;;;16.13;6.95;;;;;;;;;;5030045;28;20601;-64
2022/08/22 02:58:55;;;;;;;9.27;6.50;;;;;;;;;;5024101;28;20233;-65
2022/08/22 03:01:26;;;;;;;12.43;6.68;;;;;;;;;;5019163;28;20232;-65
2022/08/22 03:04:23;;;;;;;11.88;6.47;;;;;;;;;;5024850;28;20187;-65
2022/08/22 03:07:07;;;;;;;13.60;6.75;;;;;;;;;;5024974;28;20563;-65
2022/08/22 03:09:42;;;;;;;12.15;6.75;;;;;;;;;;5030554;28;20197;-65
2022/08/22 03:12:25;;;;;;;13.40;7.18;;;;;;;;;;5024677;28;20494;-65
2022/08/22 03:15:03;;;;;;;12.13;7.40;;;;;;;;;;5026733;28;20181;-65
2022/08/22 03:18:04;;;;;;;14.25;7.70;;;;;;;;;;5025307;28;20221;-65
2022/08/22 03:21:08;;;;;;;12.82;6.95;;;;;;;;;;5016209;28;20563;-65
2022/08/22 03:23:42;;;;;;;12.25;7.05;;;;;;;;;;5029633;28;20669;-65
2022/08/22 03:26:16;;;;;;;14.52;7.18;;;;;;;;;;5029433;28;20211;-65
2022/08/22 03:28:47;;;;;;;10.70;7.03;;;;;;;;;;5029218;28;20505;-65
2022/08/22 03:31:14;;;;;;;13.48;7.00;;;;;;;;;;5033980;28;20213;-65
2022/08/22 03:33:41;;;;;;;18.23;7.63;;;;;;;;;;5033278;28;20486;-65
2022/08/22 03:36:15;;;;;;;15.85;7.57;;;;;;;;;;5022440;28;20692;-65
2022/08/22 03:39:03;;;;;;;12.85;7.45;;;;;;;;;;5028944;28;20404;-65
2022/08/22 03:41:31;;;;;;;16.98;8.18;;;;;;;;;;5027800;28;20193;-65
2022/08/22 03:44:05;;;;;;;10.77;7.13;;;;;;;;;;5025085;28;20573;-65
2022/08/22 03:46:48;;;;;;;14.00;7.68;;;;;;;;;;5026283;28;20180;-65
2022/08/22 03:49:44;;;;;;;12.50;7.85;;;;;;;;;;5016573;28;20209;-65
2022/08/22 03:52:27;;;;;;;13.68;7.35;;;;;;;;;;5028595;28;20490;-65
2022/08/22 03:55:14;;;;;;;13.00;7.15;;;;;;;;;;5029527;28;20201;-65
2022/08/22 03:58:08;;;;;;;15.40;7.65;;;;;;;;;;5014627;28;20186;-65
2022/08/22 04:01:18;;;;;;;10.73;7.45;;;;;;;;;;5024502;28;20182;-65
2022/08/22 04:04:11;;;;;;;10.02;7.00;;;;;;;;;;5014537;28;20205;-65
2022/08/22 04:06:58;;;;;;;11.88;7.30;;;;;;;;;;5028690;28;20213;-66
2022/08/22 04:09:49;;;;;;;16.42;7.32;;;;;;;;;;5028923;28;20201;-65
2022/08/22 04:12:46;;;;;;;13.55;7.18;;;;;;;;;;5028235;28;20190;-65
2022/08/22 04:15:47;;;;;;;10.60;7.18;;;;;;;;;;5010067;28;20569;-65
2022/08/22 04:18:42;;;;;;;10.07;7.70;;;;;;;;;;5023803;28;20269;-65
2022/08/22 04:21:26;;;;;;;18.05;8.10;;;;;;;;;;5027936;28;20186;-65
2022/08/22 04:24:28;;;;;;;13.35;7.68;;;;;;;;;;5023778;28;20186;-65
2022/08/22 04:27:05;;;;;;;12.82;8.05;;;;;;;;;;5023893;28;20717;-65
2022/08/22 04:29:39;;;;;;;14.48;8.73;;;;;;;;;;5029299;28;20502;-65
2022/08/22 04:32:10;;;;;;;10.63;7.43;;;;;;;;;;5035805;28;20209;-65
2022/08/22 04:34:46;;;;;;;14.43;8.25;;;;;;;;;;5028288;28;20205;-65
2022/08/22 04:37:37;;;;;;;11.77;7.95;;;;;;;;;;5015551;28;20505;-65
2022/08/22 04:40:10;;;;;;;20.55;8.77;;;;;;;;;;5021905;28;20190;-65
2022/08/22 04:42:51;;;;;;;16.13;8.07;;;;;;;;;;5015393;28;20537;-65
2022/08/22 04:45:26;;;;;;;18.25;8.50;;;;;;;;;;5028693;28;20441;-65
2022/08/22 04:47:58;;;;;;;17.98;8.57;;;;;;;;;;5018193;28;20185;-65
2022/08/22 04:50:30;;;;;;;14.65;7.72;;;;;;;;;;5027359;28;20188;-65
2022/08/22 04:53:08;;;;;;;15.75;8.38;;;;;;;;;;5028908;28;20214;-65
2022/08/22 04:55:45;;;;;;;14.40;8.38;;;;;;;;;;5027909;28;20185;-65
2022/08/22 04:58:39;;;;;;;12.52;8.43;;;;;;;;;;5020170;28;20173;-65
2022/08/22 05:01:27;;;;;;;14.07;8.68;;;;;;;;;;5019699;28;20558;-65
2022/08/22 05:04:07;;;;;;;13.13;8.13;;;;;;;;;;5023659;28;20544;-65
2022/08/22 05:06:38;;;;;;;15.85;9.43;;;;;;;;;;5028896;28;20217;-65
2022/08/22 05:09:12;;;;;;;19.38;8.85;;;;;;;;;;5028773;28;20400;-65
2022/08/22 05:11:40;;;;;;;12.85;8.80;;;;;;;;;;5027547;28;20189;-65
2022/08/22 05:14:37;;;;;;;13.52;8.52;;;;;;;;;;5026457;28;20588;-65
2022/08/22 05:17:07;;;;;;;13.82;8.25;;;;;;;;;;5026984;28;20221;-65
2022/08/22 05:19:37;;;;;;;14.50;8.30;;;;;;;;;;5028542;28;20182;-65
2022/08/22 05:22:08;;;;;;;14.18;7.75;;;;;;;;;;5020265;28;20605;-65
2022/08/22 05:24:41;;;;;;;12.40;8.40;;;;;;;;;;5028381;28;20438;-65
2022/08/22 05:27:16;;;;;;;11.10;7.57;;;;;;;;;;5017061;28;20277;-65
2022/08/22 05:29:46;;;;;;;13.93;7.70;;;;;;;;;;5019662;28;20681;-65
2022/08/22 05:32:24;;;;;;;12.30;7.85;;;;;;;;;;5019656;28;20201;-65
2022/08/22 05:34:53;;;;;;;13.90;7.35;;;;;;;;;;5019128;28;20577;-65
2022/08/22 05:37:24;;;;;;;13.70;7.70;;;;;;;;;;5022769;28;20193;-65
2022/08/22 05:39:58;;;;;;;11.27;7.53;;;;;;;;;;5028851;28;20182;-65
2022/08/22 05:42:30;;;;;;;16.02;7.82;;;;;;;;;;5018508;28;20209;-65
2022/08/22 05:44:56;;;;;;;13.90;7.15;;;;;;;;;;5018848;28;20579;-65
2022/08/22 05:47:38;;;;;;;18.83;7.50;;;;;;;;;;5020528;28;20177;-65
2022/08/22 05:50:06;;;;;;;12.75;7.13;;;;;;;;;;5028502;28;20741;-65
2022/08/22 05:52:50;;;;;;;14.88;7.70;;;;;;;;;;5026840;28;20189;-65
2022/08/22 05:55:28;;;;;;;14.75;6.95;;;;;;;;;;5027054;28;20193;-65
2022/08/22 05:58:28;;;;;;;12.20;7.45;;;;;;;;;;5020809;28;20222;-65
2022/08/22 06:01:17;;;;;;;12.75;6.97;;;;;;;;;;5027638;28;20186;-65
2022/08/22 06:03:55;;;;;;;14.27;7.13;;;;;;;;;;5027854;28;20494;-65
2022/08/22 06:06:24;;;;;;;15.07;7.95;;;;;;;;;;5012460;28;20187;-65
2022/08/22 06:09:01;;;;;;;21.00;7.25;;;;;;;;;;5021820;28;20264;-65
2022/08/22 06:11:37;;;;;;;12.10;6.75;;;;;;;;;;5018567;28;20668;-65
2022/08/22 06:14:20;;;;;;;14.57;7.65;;;;;;;;;;5025990;28;20185;-65
2022/08/22 06:16:58;;;;;;;17.52;8.20;;;;;;;;;;5027874;28;20201;-65
2022/08/22 06:19:24;;;;;;;16.90;8.05;;;;;;;;;;5031735;28;20196;-65
2022/08/22 06:21:51;;;;;;;20.38;9.35;;;;;;;;;;5027415;28;20609;-65
2022/08/22 06:24:25;;;;;;;17.15;8.40;;;;;;;;;;5028453;28;20234;-65
2022/08/22 06:26:52;;;;;;;19.05;8.02;;;;;;;;;;5030862;28;20553;-65
2022/08/22 06:29:34;;;;;;;14.55;8.82;;;;;;;;;;5031483;28;20198;-65
2022/08/22 06:32:07;;;;;;;14.07;8.52;;;;;;;;;;5030107;28;20225;-65
2022/08/22 06:34:36;;;;;;;21.67;9.77;;;;;;;;;;5031336;28;20174;-66
2022/08/22 06:37:07;;;;;;;15.07;9.27;;;;;;;;;;5024996;28;20646;-65
2022/08/22 06:39:35;;;;;;;16.55;8.23;;;;;;;;;;5031155;28;20771;-65
2022/08/22 06:42:07;;;;;;;17.00;8.27;;;;;;;;;;5024550;28;20190;-65
2022/08/22 06:44:45;;;;;;;17.92;8.65;;;;;;;;;;5031561;28;20547;-65
2022/08/22 06:47:22;;;;;;;15.25;8.73;;;;;;;;;;5030057;28;20269;-65
2022/08/22 06:49:53;;;;;;;14.35;8.10;;;;;;;;;;5031035;28;20210;-65
2022/08/22 06:52:22;;;;;;;19.58;8.88;;;;;;;;;;5030497;28;20582;-65
2022/08/22 06:55:05;;;;;;;13.95;8.65;;;;;;;;;;5031407;28;20220;-65
2022/08/22 06:57:40;;;;;;;17.98;8.32;;;;;;;;;;5025372;28;20380;-65
2022/08/22 07:00:11;;;;;;;16.27;8.38;;;;;;;;;;5031729;28;20169;-65
2022/08/22 07:02:52;;;;;;;16.02;8.43;;;;;;;;;;5029747;28;20195;-65
2022/08/22 07:05:21;;;;;;;17.20;7.72;;;;;;;;;;5030733;28;20178;-65
2022/08/22 07:07:48;;;;;;;15.32;8.85;;;;;;;;;;5029501;28;20194;-65
2022/08/22 07:10:15;;;;;;;15.10;8.00;;;;;;;;;;5030283;28;20265;-66
2022/08/22 07:12:46;;;;;;;18.20;8.02;;;;;;;;;;5016444;28;20273;-67
2022/08/22 07:15:35;;;;;;;15.25;7.40;;;;;;;;;;5021442;28;20185;-65
2022/08/22 07:18:15;;;;;;;17.55;8.40;;;;;;;;;;5030378;28;20194;-66
2022/08/22 07:20:45;;;;;;;13.82;8.00;;;;;;;;;;5017536;28;20587;-66
2022/08/22 07:23:23;;;;;;;19.33;8.73;;;;;;;;;;5026994;28;20220;-66
2022/08/22 07:26:04;;;;;;;14.63;8.23;;;;;;;;;;5017267;28;20221;-65
2022/08/22 07:28:52;;;;;;;16.70;9.18;;;;;;;;;;5027160;28;20293;-66
2022/08/22 07:31:38;;;;;;;16.65;8.52;;;;;;;;;;5027604;28;20732;-68
2022/08/22 07:34:25;;;;;;;18.10;9.07;;;;;;;;;;5028962;28;20186;-66
2022/08/22 07:37:05;;;;;;;20.00;8.77;;;;;;;;;;5027693;28;20178;-67
2022/08/22 07:39:49;;;;;;;21.85;9.93;;;;;;;;;;5018328;28;20173;-66
2022/08/22 07:42:48;;;;;;;16.27;9.80;;;;;;;;;;5026663;28;20186;-66
2022/08/22 07:45:32;;;;;;;17.02;9.50;;;;;;;;;;5021814;28;20198;-66
2022/08/22 07:48:12;;;;;;;19.02;9.48;;;;;;;;;;5019835;28;20186;-66
2022/08/22 07:50:56;;;;;;;18.77;9.55;;;;;;;;;;5029363;28;20208;-66
2022/08/22 07:53:45;;;;;;;16.98;9.70;;;;;;;;;;5030160;28;20186;-66
2022/08/22 07:56:27;;;;;;;14.38;9.43;;;;;;;;;;5017560;28;20181;-67
2022/08/22 07:58:58;;;;;;;16.00;9.85;;;;;;;;;;5028675;28;20182;-66
2022/08/22 08:01:25;;;;;;;17.48;9.35;;;;;;;;;;5030332;28;20240;-66
2022/08/22 08:04:02;;;;;;;17.98;8.88;;;;;;;;;;5026733;28;20562;-66
2022/08/22 08:06:28;;;;;;;21.05;9.55;;;;;;;;;;5021218;28;20182;-67
2022/08/22 08:08:55;;;;;;;21.95;9.60;;;;;;;;;;5012389;28;20229;-67
2022/08/22 08:11:23;;;;;;;19.85;9.57;;;;;;;;;;5029797;28;20232;-66
2022/08/22 08:14:01;;;;;;;18.33;10.13;;;;;;;;;;5025932;28;20222;-66
2022/08/22 08:16:31;;;;;;;21.70;10.27;;;;;;;;;;5016470;28;20205;-67
2022/08/22 08:19:00;;;;;;;20.50;9.45;;;;;;;;;;5021561;28;20190;-66
2022/08/22 08:21:34;;;;;;;16.10;8.93;;;;;;;;;;5029792;28;20186;-66
2022/08/22 08:24:00;;;;;;;16.83;8.63;;;;;;;;;;5017777;28;20226;-66
2022/08/22 08:26:32;;;;;;;14.63;8.65;;;;;;;;;;5028897;28;20184;-66
2022/08/22 08:28:58;;;;;;;14.90;8.52;;;;;;;;;;5019892;28;20262;-66
2022/08/22 08:31:31;;;;;;;14.45;8.75;;;;;;;;;;5036081;28;20205;-66
2022/08/22 08:34:16;;;;;;;16.45;8.50;;;;;;;;;;5029469;28;20182;-66
2022/08/22 08:36:51;;;;;;;16.63;8.85;;;;;;;;;;5029767;28;20186;-66
2022/08/22 08:39:24;;;;;;;15.57;8.70;;;;;;;;;;5016576;28;20166;-66
2022/08/22 08:42:02;;;;;;;17.50;7.97;;;;;;;;;;5022503;28;20709;-66
2022/08/22 08:45:06;;;;;;;11.88;6.63;;;;;;;;;;5026380;28;20204;-66
2022/08/22 08:47:50;;;;;;;9.85;5.18;;;;;;;;;;5026751;28;20281;-66
2022/08/22 08:50:48;;;;;;;12.18;5.65;;;;;;;;;;5027920;28;20660;-66
2022/08/22 08:53:48;;;;;;;13.73;4.90;;;;;;;;;;5019631;28;20194;-66
2022/08/22 08:56:41;;;;;;;15.40;4.63;;;;;;;;;;5016510;28;20182;-66
2022/08/22 08:59:34;;;;;;;13.07;4.53;;;;;;;;;;5023554;28;20188;-66
2022/08/22 09:02:44;;;;;;;13.02;4.53;;;;;;;;;;5028937;28;20182;-66
2022/08/22 09:05:26;;;;;;;14.10;4.50;;;;;;;;;;5027693;28;20194;-66
2022/08/22 09:07:54;;;;;;;11.23;4.47;;;;;;;;;;5009846;28;20189;-66
2022/08/22 09:10:56;;;;;;;11.45;4.90;;;;;;;;;;5021120;28;20529;-67
2022/08/22 09:13:46;;;;;;;11.52;4.90;;;;;;;;;;5018223;28;20738;-66
2022/08/22 09:16:41;;;;;;;14.25;5.97;;;;;;;;;;5027020;28;20695;-65
2022/08/22 09:19:35;;;;;;;12.48;4.78;;;;;;;;;;5019923;28;20184;-65
2022/08/22 09:22:37;;;;;;;10.02;4.95;;;;;;;;;;5027841;28;20634;-65
2022/08/22 09:25:17;;;;;;;12.70;5.43;;;;;;;;;;5026448;28;20229;-65
2022/08/22 09:28:13;;;;;;;12.68;6.00;;;;;;;;;;5025762;28;20549;-65
2022/08/22 09:31:01;;;;;;;13.98;5.40;;;;;;;;;;5027485;28;20206;-66
2022/08/22 09:33:37;;;;;;;11.13;5.57;;;;;;;;;;5024878;28;20194;-65
2022/08/22 09:36:17;;;;;;;16.15;5.78;;;;;;;;;;5015643;28;20177;-66
2022/08/22 09:38:49;;;;;;;13.77;5.85;;;;;;;;;;5017309;28;20182;-65
2022/08/22 09:41:38;;;;;;;10.43;4.75;;;;;;;;;;5017159;28;20274;-67
2022/08/22 09:44:23;;;;;;;15.40;4.85;;;;;;;;;;5027101;28;20652;-65
2022/08/22 09:46:55;;;;;;;11.90;6.03;;;;;;;;;;5032023;28;20375;-66
2022/08/22 09:49:44;;;;;;;12.30;5.50;;;;;;;;;;5023069;28;20284;-65
2022/08/22 09:52:32;;;;;;;11.27;5.40;;;;;;;;;;5031937;28;20209;-66
2022/08/22 09:55:08;;;;;;;11.50;5.57;;;;;;;;;;5032547;28;20193;-65
2022/08/22 09:57:43;;;;;;;11.73;5.80;;;;;;;;;;5031311;28;20231;-66
2022/08/22 10:00:16;;;;;;;13.32;5.40;;;;;;;;;;5025310;28;20327;-66
2022/08/22 10:02:52;;;;;;;11.02;4.70;;;;;;;;;;5031098;28;20315;-65
2022/08/22 10:05:33;;;;;;;10.27;4.93;;;;;;;;;;5032449;28;20800;-66
2022/08/22 10:08:10;;;;;;;11.05;4.60;;;;;;;;;;5028121;28;20255;-66
2022/08/22 10:10:57;;;;;;;9.68;5.00;;;;;;;;;;5025316;28;20190;-66
2022/08/22 10:13:43;;;;;;;13.65;5.28;;;;;;;;;;5028223;28;20265;-65
2022/08/22 10:16:36;;;;;;;13.32;5.78;;;;;;;;;;5027673;28;20689;-67
2022/08/22 10:19:33;;;;;;;12.90;5.05;;;;;;;;;;5012048;28;20190;-67
2022/08/22 10:22:38;;;;;;;9.23;5.40;;;;;;;;;;5029058;28;20181;-68
2022/08/22 10:25:06;;;;;;;7.82;4.22;;;;;;;;;;5025007;28;20673;-66
2022/08/22 10:27:37;;;;;;;11.85;4.47;;;;;;;;;;5031026;28;20178;-67
2022/08/22 10:30:08;;;;;;;8.50;3.78;;;;;;;;;;5028766;28;20769;-66
2022/08/22 10:33:23;;;;;;;12.77;3.78;;;;;;;;;;5037872;28;20209;-66
2022/08/22 10:36:06;;;;;;;11.05;4.60;;;;;;;;;;5020826;28;20202;-66
2022/08/22 10:38:49;;;;;;;9.63;4.15;;;;;;;;;;5024982;28;20175;-66
2022/08/22 10:41:24;;;;;;;9.90;3.38;;;;;;;;;;5019653;28;20204;-66
2022/08/22 10:43:54;;;;;;;12.13;4.32;;;;;;;;;;5023684;28;20190;-66
2022/08/22 10:46:26;;;;;;;10.23;3.38;;;;;;;;;;5031945;28;20691;-65
2022/08/22 10:48:59;;;;;;;12.18;3.13;;;;;;;;;;5022143;28;20206;-66
2022/08/22 10:51:45;;;;;;;8.90;3.67;;;;;;;;;;5021919;28;20265;-65
2022/08/22 10:54:36;;;;;;;9.18;3.70;;;;;;;;;;5024891;28;20593;-65
2022/08/22 10:57:14;;;;;;;10.13;4.13;;;;;;;;;;5029498;28;20197;-65
2022/08/22 10:59:57;;;;;;;8.48;3.63;;;;;;;;;;5024797;28;20193;-66
2022/08/22 11:02:48;;;;;;;8.98;3.60;;;;;;;;;;5030246;28;20231;-66
2022/08/22 11:05:34;;;;;;;9.63;3.00;;;;;;;;;;5015674;28;20544;-65
2022/08/22 11:08:23;;;;;;;10.52;3.10;;;;;;;;;;5026338;28;20186;-65
2022/08/22 11:11:25;;;;;;;8.80;2.95;;;;;;;;;;5026563;28;20184;-65
2022/08/22 11:14:14;;;;;;;7.35;2.58;;;;;;;;;;5031009;28;20208;-66
2022/08/22 11:16:55;;;;;;;7.07;2.45;;;;;;;;;;5019670;28;20244;-64
2022/08/22 11:19:45;;;;;;;7.35;2.70;;;;;;;;;;5029814;28;20657;-64
2022/08/22 11:22:26;;;;;;;7.68;3.10;;;;;;;;;;5024253;28;20178;-64
2022/08/22 11:25:00;;;;;;;5.88;2.83;;;;;;;;;;5024224;28;20226;-66
2022/08/22 11:27:44;;;;;;;9.65;2.72;;;;;;;;;;5031297;28;20193;-64
2022/08/22 11:30:13;;;;;;;6.40;2.47;;;;;;;;;;5024585;28;20390;-65
2022/08/22 11:33:22;;;;;;;7.72;2.33;;;;;;;;;;5036925;28;20199;-64
2022/08/22 11:35:59;;;;;;;9.80;3.15;;;;;;;;;;5029550;28;20239;-65
2022/08/22 11:38:45;;;;;;;6.35;2.55;;;;;;;;;;5028867;28;20701;-65
2022/08/22 11:41:21;;;;;;;8.63;2.72;;;;;;;;;;5018146;28;20273;-64
2022/08/22 11:44:05;;;;;;;7.22;2.38;;;;;;;;;;5029453;28;20700;-65
2022/08/22 11:46:35;;;;;;;10.18;2.67;;;;;;;;;;5030640;28;20228;-65
2022/08/22 11:49:26;;;;;;;7.57;2.30;;;;;;;;;;5029240;28;20198;-65
2022/08/22 11:52:25;;;;;;;6.25;2.50;;;;;;;;;;5028797;28;20175;-65
2022/08/22 11:55:15;;;;;;;8.60;2.58;;;;;;;;;;5028345;28;20277;-65
2022/08/22 11:57:46;;;;;;;9.38;1.98;;;;;;;;;;5015844;28;20198;-65
2022/08/22 12:00:42;;;;;;;7.72;2.33;;;;;;;;;;5023561;28;20189;-65
2022/08/22 12:03:21;;;;;;;7.55;2.20;;;;;;;;;;5016135;28;20630;-64
2022/08/22 12:06:08;;;;;;;9.25;2.25;;;;;;;;;;5029909;28;20186;-65
2022/08/22 12:08:39;;;;;;;8.32;2.35;;;;;;;;;;5027579;28;20650;-66
2022/08/22 12:11:10;;;;;;;7.47;2.25;;;;;;;;;;5027850;28;20556;-66
2022/08/22 12:13:54;;;;;;;7.60;2.70;;;;;;;;;;5028511;28;20228;-66
2022/08/22 12:16:40;;;;;;;11.73;3.15;;;;;;;;;;5028202;28;20190;-66
2022/08/22 12:19:05;;;;;;;7.63;2.60;;;;;;;;;;5015173;28;20171;-66
2022/08/22 12:21:54;;;;;;;6.72;3.13;;;;;;;;;;5023444;28;20642;-66
2022/08/22 12:24:49;;;;;;;6.68;2.20;;;;;;;;;;5021931;28;20281;-66
2022/08/22 12:27:26;;;;;;;7.65;2.50;;;;;;;;;;5024919;28;20673;-65
2022/08/22 12:30:16;;;;;;;6.78;2.60;;;;;;;;;;5016233;28;20242;-65
2022/08/22 12:32:57;;;;;;;5.70;1.90;;;;;;;;;;5036734;28;20285;-65
2022/08/22 12:35:43;;;;;;;7.03;2.50;;;;;;;;;;5029083;28;20265;-65
2022/08/22 12:38:39;;;;;;;6.95;2.17;;;;;;;;;;5029053;28;20269;-65
2022/08/22 12:41:25;;;;;;;5.65;2.10;;;;;;;;;;5015857;28;20182;-65
2022/08/22 12:44:17;;;;;;;9.68;2.65;;;;;;;;;;5027801;28;20549;-65
2022/08/22 12:46:50;;;;;;;7.53;2.40;;;;;;;;;;5018051;28;20397;-65
2022/08/22 12:49:23;;;;;;;7.85;2.30;;;;;;;;;;5017854;28;20587;-65
2022/08/22 12:52:11;;;;;;;8.07;2.58;;;;;;;;;;5022678;28;20178;-65
2022/08/22 12:55:19;;;;;;;6.20;2.42;;;;;;;;;;5021700;28;20182;-66
2022/08/22 12:58:05;;;;;;;6.90;2.60;;;;;;;;;;5014918;28;20186;-65
2022/08/22 13:00:34;;;;;;;9.35;2.75;;;;;;;;;;5018948;28;20193;-65
2022/08/22 13:03:22;;;;;;;7.80;2.50;;;;;;;;;;5028866;28;20182;-65
2022/08/22 13:05:48;;;;;;;8.10;2.60;;;;;;;;;;5027858;28;20662;-64
2022/08/22 13:08:30;;;;;;;5.43;2.50;;;;;;;;;;5028701;28;20244;-65
2022/08/22 13:11:00;;;;;;;6.50;2.05;;;;;;;;;;5027373;28;20529;-65
2022/08/22 13:13:32;;;;;;;7.05;2.35;;;;;;;;;;5027745;28;20178;-65
2022/08/22 13:16:07;;;;;;;7.47;2.10;;;;;;;;;;5026883;28;20550;-65
2022/08/22 13:18:45;;;;;;;9.95;2.38;;;;;;;;;;5028147;28;20173;-65
2022/08/22 13:21:15;;;;;;;3.88;2.20;;;;;;;;;;5022806;28;20193;-65
2022/08/22 13:23:44;;;;;;;6.18;2.20;;;;;;;;;;5031987;28;20192;-65
2022/08/22 13:26:24;;;;;;;6.22;2.42;;;;;;;;;;5031647;28;20189;-65
2022/08/22 13:28:54;;;;;;;5.32;2.08;;;;;;;;;;5031015;28;20312;-65
2022/08/22 13:31:37;;;;;;;7.45;2.20;;;;;;;;;;5032924;28;20201;-65
2022/08/22 13:34:25;;;;;;;6.60;2.38;;;;;;;;;;5031522;28;20174;-65
2022/08/22 13:36:57;;;;;;;8.45;2.63;;;;;;;;;;5017329;28;20183;-65
2022/08/22 13:39:32;;;;;;;8.60;2.30;;;;;;;;;;5014711;28;20703;-65
2022/08/22 13:42:02;;;;;;;9.25;3.15;;;;;;;;;;5024817;28;20258;-65
2022/08/22 13:44:35;;;;;;;6.60;2.65;;;;;;;;;;5028700;28;20221;-65
2022/08/22 13:47:04;;;;;;;6.45;2.17;;;;;;;;;;5024697;28;20182;-65
2022/08/22 13:49:42;;;;;;;6.40;2.53;;;;;;;;;;5023756;28;20271;-65
2022/08/22 13:52:21;;;;;;;6.40;2.67;;;;;;;;;;5029956;28;20264;-64
2022/08/22 13:54:53;;;;;;;6.70;2.65;;;;;;;;;;5026442;28;20200;-65
2022/08/22 13:57:21;;;;;;;7.10;2.92;;;;;;;;;;5026157;28;20174;-65
2022/08/22 14:00:00;;;;;;;6.78;2.22;;;;;;;;;;5026379;28;20273;-65
2022/08/22 14:02:26;;;;;;;7.65;2.67;;;;;;;;;;5028201;28;20181;-65
2022/08/22 14:04:58;;;;;;;5.15;2.38;;;;;;;;;;5026055;28;20186;-65
2022/08/22 14:07:34;;;;;;;8.55;2.47;;;;;;;;;;5027890;28;20241;-65
2022/08/22 14:10:06;;;;;;;5.38;2.30;;;;;;;;;;5025043;28;20261;-65
2022/08/22 14:12:47;;;;;;;6.80;2.30;;;;;;;;;;5028346;28;20798;-65
2022/08/22 14:15:20;;;;;;;4.78;2.17;;;;;;;;;;5022044;28;20186;-65
2022/08/22 14:17:48;;;;;;;7.97;2.53;;;;;;;;;;5031275;28;20244;-65
2022/08/22 14:20:25;;;;;;;5.65;2.20;;;;;;;;;;5024485;28;20182;-65
2022/08/22 14:22:53;;;;;;;7.18;2.72;;;;;;;;;;5031433;28;20185;-65
2022/08/22 14:25:23;;;;;;;6.38;2.30;;;;;;;;;;5015602;28;20221;-66
2022/08/22 14:27:48;;;;;;;4.82;2.17;;;;;;;;;;5030648;28;20194;-65
2022/08/22 14:30:17;;;;;;;5.70;2.25;;;;;;;;;;5024232;28;20572;-65
2022/08/22 14:33:20;;;;;;;7.40;1.95;;;;;;;;;;5037161;28;20202;-66
2022/08/22 14:35:54;;;;;;;6.80;2.75;;;;;;;;;;5021662;28;20204;-65
2022/08/22 14:38:31;;;;;;;5.32;2.25;;;;;;;;;;5024288;28;20309;-65
2022/08/22 14:41:20;;;;;;;8.02;2.35;;;;;;;;;;5024069;28;20181;-65
2022/08/22 14:43:46;;;;;;;4.75;2.28;;;;;;;;;;5030954;28;20186;-65
2022/08/22 14:46:18;;;;;;;7.75;2.70;;;;;;;;;;5023074;28;20186;-65
2022/08/22 14:49:08;;;;;;;7.75;2.47;;;;;;;;;;5030795;28;20228;-65
2022/08/22 14:51:33;;;;;;;6.53;2.03;;;;;;;;;;5022827;28;20236;-65
2022/08/22 14:54:28;;;;;;;6.07;2.28;;;;;;;;;;5031198;28;20174;-66
2022/08/22 14:56:54;;;;;;;10.13;2.50;;;;;;;;;;5023028;28;20217;-65
2022/08/22 14:59:38;;;;;;;10.77;2.72;;;;;;;;;;5028905;28;20178;-66
2022/08/22 15:02:08;;;;;;;6.88;2.47;;;;;;;;;;5027332;28;20622;-65
2022/08/22 15:04:37;;;;;;;7.22;2.50;;;;;;;;;;5030363;28;20193;-65
2022/08/22 15:07:04;;;;;;;8.30;2.67;;;;;;;;;;5024281;28;20190;-65
2022/08/22 15:09:41;;;;;;;6.60;2.83;;;;;;;;;;5030018;28;20201;-65
2022/08/22 15:12:24;;;;;;;6.57;2.40;;;;;;;;;;5029977;28;20563;-65
2022/08/22 15:14:54;;;;;;;7.40;2.42;;;;;;;;;;5028127;28;20247;-65
2022/08/22 15:17:42;;;;;;;6.55;2.35;;;;;;;;;;5030807;28;20185;-65
2022/08/22 15:20:11;;;;;;;8.60;2.60;;;;;;;;;;5027976;28;20538;-65
2022/08/22 15:22:38;;;;;;;7.85;2.53;;;;;;;;;;5030999;28;20214;-65
2022/08/22 15:25:20;;;;;;;7.97;2.70;;;;;;;;;;5027410;28;20586;-65
2022/08/22 15:27:48;;;;;;;7.97;2.40;;;;;;;;;;5023166;28;20178;-65
2022/08/22 15:30:15;;;;;;;6.18;2.65;;;;;;;;;;5027430;28;20302;-65
2022/08/22 15:32:42;;;;;;;4.15;1.98;;;;;;;;;;5035824;28;20194;-66
2022/08/22 15:35:16;;;;;;;9.75;2.30;;;;;;;;;;5027679;28;20190;-65
2022/08/22 15:38:00;;;;;;;7.95;2.92;;;;;;;;;;5018258;28;20178;-65
2022/08/22 15:40:28;;;;;;;5.30;2.05;;;;;;;;;;5026394;28;20179;-65
2022/08/22 15:42:55;;;;;;;5.30;2.25;;;;;;;;;;5029830;28;20182;-65
2022/08/22 15:45:31;;;;;;;5.25;2.25;;;;;;;;;;5026886;28;20187;-65
2022/08/22 15:47:58;;;;;;;6.47;2.30;;;;;;;;;;5018245;28;20623;-65
2022/08/22 15:50:36;;;;;;;8.10;2.47;;;;;;;;;;5027797;28;20548;-65